sensor_id;sensor_type;location;lat;lon;timestamp;P1;durP1;ratioP1;P2;durP2;ratioP2
68178;SDS011;69812;42.632;23.440;2023-08-24T00:01:46;13.35;;;10.05;;
68178;SDS011;69812;42.632;23.440;2023-08-24T00:04:11;16.80;;;9.85;;
68178;SDS011;69812;42.632;23.440;2023-08-24T00:06:36;14.38;;;10.77;;
68178;SDS011;69812;42.632;23.440;2023-08-24T00:09:02;16.20;;;10.63;;
68178;SDS011;69812;42.632;23.440;2023-08-24T00:14:00;15.88;;;11.02;;
68178;SDS011;69812;42.632;23.440;2023-08-24T00:16:25;13.40;;;10.13;;
68178;SDS011;69812;42.632;23.440;2023-08-24T00:18:51;17.42;;;11.10;;
68178;SDS011;69812;42.632;23.440;2023-08-24T00:21:16;15.55;;;10.13;;
68178;SDS011;69812;42.632;23.440;2023-08-24T00:23:42;15.85;;;10.63;;
68178;SDS011;69812;42.632;23.440;2023-08-24T00:26:10;16.90;;;10.32;;
68178;SDS011;69812;42.632;23.440;2023-08-24T00:28:35;15.40;;;10.25;;
68178;SDS011;69812;42.632;23.440;2023-08-24T00:31:01;15.68;;;10.70;;
68178;SDS011;69812;42.632;23.440;2023-08-24T00:33:26;16.63;;;10.70;;
68178;SDS011;69812;42.632;23.440;2023-08-24T00:35:51;16.90;;;10.10;;
68178;SDS011;69812;42.632;23.440;2023-08-24T00:38:29;15.77;;;11.35;;
68178;SDS011;69812;42.632;23.440;2023-08-24T00:40:55;16.15;;;10.98;;
68178;SDS011;69812;42.632;23.440;2023-08-24T00:45:49;15.77;;;10.80;;
68178;SDS011;69812;42.632;23.440;2023-08-24T00:48:21;18.45;;;10.88;;
68178;SDS011;69812;42.632;23.440;2023-08-24T00:50:51;18.50;;;10.68;;
68178;SDS011;69812;42.632;23.440;2023-08-24T00:53:18;15.98;;;11.63;;
68178;SDS011;69812;42.632;23.440;2023-08-24T00:58:10;22.38;;;11.93;;
68178;SDS011;69812;42.632;23.440;2023-08-24T01:00:38;14.98;;;10.88;;
68178;SDS011;69812;42.632;23.440;2023-08-24T01:03:03;15.65;;;11.25;;
68178;SDS011;69812;42.632;23.440;2023-08-24T01:05:29;16.10;;;11.27;;
68178;SDS011;69812;42.632;23.440;2023-08-24T01:07:54;17.63;;;11.80;;
68178;SDS011;69812;42.632;23.440;2023-08-24T01:10:20;18.77;;;11.50;;
68178;SDS011;69812;42.632;23.440;2023-08-24T01:15:29;18.88;;;11.60;;
68178;SDS011;69812;42.632;23.440;2023-08-24T01:18:01;18.27;;;11.38;;
68178;SDS011;69812;42.632;23.440;2023-08-24T01:20:30;16.98;;;11.40;;
68178;SDS011;69812;42.632;23.440;2023-08-24T01:28:13;17.10;;;11.80;;
68178;SDS011;69812;42.632;23.440;2023-08-24T01:30:43;17.80;;;12.32;;
68178;SDS011;69812;42.632;23.440;2023-08-24T01:33:09;18.10;;;11.98;;
68178;SDS011;69812;42.632;23.440;2023-08-24T01:35:38;16.50;;;12.02;;
68178;SDS011;69812;42.632;23.440;2023-08-24T01:38:06;16.85;;;11.93;;
68178;SDS011;69812;42.632;23.440;2023-08-24T01:43:20;16.73;;;12.18;;
68178;SDS011;69812;42.632;23.440;2023-08-24T01:45:50;17.80;;;11.25;;
68178;SDS011;69812;42.632;23.440;2023-08-24T01:48:17;17.42;;;11.70;;
68178;SDS011;69812;42.632;23.440;2023-08-24T01:50:42;15.73;;;11.40;;
68178;SDS011;69812;42.632;23.440;2023-08-24T01:53:09;17.48;;;11.77;;
68178;SDS011;69812;42.632;23.440;2023-08-24T01:55:34;17.63;;;11.40;;
68178;SDS011;69812;42.632;23.440;2023-08-24T01:58:00;18.02;;;12.13;;
68178;SDS011;69812;42.632;23.440;2023-08-24T02:00:25;17.30;;;11.75;;
68178;SDS011;69812;42.632;23.440;2023-08-24T02:02:51;17.80;;;11.95;;
68178;SDS011;69812;42.632;23.440;2023-08-24T02:05:17;17.13;;;12.10;;
68178;SDS011;69812;42.632;23.440;2023-08-24T02:07:42;18.80;;;12.30;;
68178;SDS011;69812;42.632;23.440;2023-08-24T02:10:07;17.05;;;12.77;;
68178;SDS011;69812;42.632;23.440;2023-08-24T02:12:35;19.02;;;12.38;;
68178;SDS011;69812;42.632;23.440;2023-08-24T02:15:00;17.45;;;12.23;;
68178;SDS011;69812;42.632;23.440;2023-08-24T02:17:26;17.27;;;12.18;;
68178;SDS011;69812;42.632;23.440;2023-08-24T02:19:52;17.55;;;11.85;;
68178;SDS011;69812;42.632;23.440;2023-08-24T02:22:20;19.30;;;12.60;;
68178;SDS011;69812;42.632;23.440;2023-08-24T02:24:47;18.48;;;11.80;;
68178;SDS011;69812;42.632;23.440;2023-08-24T02:27:15;17.63;;;12.02;;
68178;SDS011;69812;42.632;23.440;2023-08-24T02:29:40;22.70;;;11.80;;
68178;SDS011;69812;42.632;23.440;2023-08-24T02:32:08;18.00;;;11.93;;
68178;SDS011;69812;42.632;23.440;2023-08-24T02:34:33;17.50;;;11.50;;
68178;SDS011;69812;42.632;23.440;2023-08-24T02:37:01;18.35;;;12.68;;
68178;SDS011;69812;42.632;23.440;2023-08-24T02:39:29;21.08;;;12.40;;
68178;SDS011;69812;42.632;23.440;2023-08-24T02:41:54;20.13;;;12.15;;
68178;SDS011;69812;42.632;23.440;2023-08-24T02:44:19;24.67;;;11.98;;
68178;SDS011;69812;42.632;23.440;2023-08-24T02:46:45;17.80;;;11.73;;
68178;SDS011;69812;42.632;23.440;2023-08-24T02:49:10;18.05;;;11.90;;
68178;SDS011;69812;42.632;23.440;2023-08-24T02:51:36;18.38;;;11.25;;
68178;SDS011;69812;42.632;23.440;2023-08-24T02:54:01;20.55;;;11.93;;
68178;SDS011;69812;42.632;23.440;2023-08-24T02:56:26;17.40;;;11.48;;
68178;SDS011;69812;42.632;23.440;2023-08-24T02:58:52;20.45;;;11.68;;
68178;SDS011;69812;42.632;23.440;2023-08-24T03:01:18;19.20;;;12.48;;
68178;SDS011;69812;42.632;23.440;2023-08-24T03:03:45;17.63;;;12.43;;
68178;SDS011;69812;42.632;23.440;2023-08-24T03:06:10;17.48;;;11.65;;
68178;SDS011;69812;42.632;23.440;2023-08-24T03:08:39;17.10;;;12.15;;
68178;SDS011;69812;42.632;23.440;2023-08-24T03:11:04;17.63;;;11.48;;
68178;SDS011;69812;42.632;23.440;2023-08-24T03:13:30;17.50;;;11.90;;
68178;SDS011;69812;42.632;23.440;2023-08-24T03:16:02;19.90;;;11.68;;
68178;SDS011;69812;42.632;23.440;2023-08-24T03:18:28;15.65;;;11.07;;
68178;SDS011;69812;42.632;23.440;2023-08-24T03:20:54;20.00;;;12.02;;
68178;SDS011;69812;42.632;23.440;2023-08-24T03:23:20;16.35;;;11.40;;
68178;SDS011;69812;42.632;23.440;2023-08-24T03:25:45;20.65;;;12.25;;
68178;SDS011;69812;42.632;23.440;2023-08-24T03:28:11;18.40;;;12.02;;
68178;SDS011;69812;42.632;23.440;2023-08-24T03:30:37;18.13;;;12.18;;
68178;SDS011;69812;42.632;23.440;2023-08-24T03:33:04;18.00;;;12.32;;
68178;SDS011;69812;42.632;23.440;2023-08-24T03:35:30;19.42;;;12.80;;
68178;SDS011;69812;42.632;23.440;2023-08-24T03:37:59;16.27;;;11.95;;
68178;SDS011;69812;42.632;23.440;2023-08-24T03:40:25;20.80;;;13.02;;
68178;SDS011;69812;42.632;23.440;2023-08-24T03:42:50;18.90;;;13.05;;
68178;SDS011;69812;42.632;23.440;2023-08-24T03:45:16;22.30;;;12.82;;
68178;SDS011;69812;42.632;23.440;2023-08-24T03:47:41;19.63;;;12.73;;
68178;SDS011;69812;42.632;23.440;2023-08-24T03:50:12;18.77;;;13.07;;
68178;SDS011;69812;42.632;23.440;2023-08-24T03:52:37;21.67;;;12.85;;
68178;SDS011;69812;42.632;23.440;2023-08-24T03:55:04;19.63;;;13.45;;
68178;SDS011;69812;42.632;23.440;2023-08-24T03:57:32;21.15;;;13.18;;
68178;SDS011;69812;42.632;23.440;2023-08-24T04:00:00;19.73;;;13.70;;
68178;SDS011;69812;42.632;23.440;2023-08-24T04:02:25;22.25;;;13.25;;
68178;SDS011;69812;42.632;23.440;2023-08-24T04:04:54;18.95;;;12.48;;
68178;SDS011;69812;42.632;23.440;2023-08-24T04:07:22;22.10;;;13.32;;
68178;SDS011;69812;42.632;23.440;2023-08-24T04:09:47;20.17;;;13.73;;
68178;SDS011;69812;42.632;23.440;2023-08-24T04:12:13;19.52;;;12.73;;
68178;SDS011;69812;42.632;23.440;2023-08-24T04:14:41;20.73;;;13.05;;
68178;SDS011;69812;42.632;23.440;2023-08-24T04:17:08;20.13;;;12.75;;
68178;SDS011;69812;42.632;23.440;2023-08-24T04:19:35;20.33;;;13.00;;
68178;SDS011;69812;42.632;23.440;2023-08-24T04:22:03;22.42;;;12.57;;
68178;SDS011;69812;42.632;23.440;2023-08-24T04:24:28;18.25;;;13.07;;
68178;SDS011;69812;42.632;23.440;2023-08-24T04:26:54;20.92;;;12.77;;
68178;SDS011;69812;42.632;23.440;2023-08-24T04:29:22;18.88;;;12.52;;
68178;SDS011;69812;42.632;23.440;2023-08-24T04:31:47;20.92;;;12.85;;
68178;SDS011;69812;42.632;23.440;2023-08-24T04:34:13;18.40;;;12.57;;
68178;SDS011;69812;42.632;23.440;2023-08-24T04:36:38;20.02;;;12.20;;
68178;SDS011;69812;42.632;23.440;2023-08-24T04:39:04;21.98;;;12.68;;
68178;SDS011;69812;42.632;23.440;2023-08-24T04:41:29;18.13;;;12.32;;
68178;SDS011;69812;42.632;23.440;2023-08-24T04:43:54;21.13;;;12.68;;
68178;SDS011;69812;42.632;23.440;2023-08-24T04:46:20;25.15;;;13.52;;
68178;SDS011;69812;42.632;23.440;2023-08-24T04:48:48;26.92;;;15.27;;
68178;SDS011;69812;42.632;23.440;2023-08-24T04:51:13;22.95;;;13.52;;
68178;SDS011;69812;42.632;23.440;2023-08-24T04:53:41;21.95;;;13.65;;
68178;SDS011;69812;42.632;23.440;2023-08-24T04:56:06;19.02;;;12.85;;
68178;SDS011;69812;42.632;23.440;2023-08-24T04:58:34;21.13;;;12.93;;
68178;SDS011;69812;42.632;23.440;2023-08-24T05:00:59;21.67;;;14.48;;
68178;SDS011;69812;42.632;23.440;2023-08-24T05:03:25;22.33;;;12.77;;
68178;SDS011;69812;42.632;23.440;2023-08-24T05:05:51;23.48;;;12.93;;
68178;SDS011;69812;42.632;23.440;2023-08-24T05:08:16;18.33;;;11.98;;
68178;SDS011;69812;42.632;23.440;2023-08-24T05:10:42;20.65;;;12.32;;
68178;SDS011;69812;42.632;23.440;2023-08-24T05:13:10;22.13;;;12.25;;
68178;SDS011;69812;42.632;23.440;2023-08-24T05:15:35;21.85;;;12.80;;
68178;SDS011;69812;42.632;23.440;2023-08-24T05:18:01;18.13;;;12.07;;
68178;SDS011;69812;42.632;23.440;2023-08-24T05:20:26;21.92;;;12.68;;
68178;SDS011;69812;42.632;23.440;2023-08-24T05:22:52;17.25;;;12.00;;
68178;SDS011;69812;42.632;23.440;2023-08-24T05:25:20;24.45;;;12.50;;
68178;SDS011;69812;42.632;23.440;2023-08-24T05:27:46;19.77;;;11.75;;
68178;SDS011;69812;42.632;23.440;2023-08-24T05:30:14;22.42;;;12.30;;
68178;SDS011;69812;42.632;23.440;2023-08-24T05:32:41;16.27;;;11.20;;
68178;SDS011;69812;42.632;23.440;2023-08-24T05:35:10;16.73;;;11.43;;
68178;SDS011;69812;42.632;23.440;2023-08-24T05:37:36;16.52;;;10.88;;
68178;SDS011;69812;42.632;23.440;2023-08-24T05:40:01;18.80;;;12.57;;
68178;SDS011;69812;42.632;23.440;2023-08-24T05:44:53;19.77;;;11.97;;
68178;SDS011;69812;42.632;23.440;2023-08-24T05:47:18;16.40;;;12.15;;
68178;SDS011;69812;42.632;23.440;2023-08-24T05:49:46;15.07;;;11.35;;
68178;SDS011;69812;42.632;23.440;2023-08-24T05:52:14;18.30;;;11.85;;
68178;SDS011;69812;42.632;23.440;2023-08-24T05:54:40;15.95;;;11.45;;
68178;SDS011;69812;42.632;23.440;2023-08-24T05:57:05;15.95;;;11.68;;
68178;SDS011;69812;42.632;23.440;2023-08-24T05:59:31;19.10;;;12.82;;
68178;SDS011;69812;42.632;23.440;2023-08-24T06:01:58;16.38;;;12.50;;
68178;SDS011;69812;42.632;23.440;2023-08-24T06:04:23;18.63;;;12.52;;
68178;SDS011;69812;42.632;23.440;2023-08-24T06:06:49;17.58;;;13.02;;
68178;SDS011;69812;42.632;23.440;2023-08-24T06:09:14;21.13;;;13.00;;
68178;SDS011;69812;42.632;23.440;2023-08-24T06:11:42;18.73;;;12.07;;
68178;SDS011;69812;42.632;23.440;2023-08-24T06:14:10;15.98;;;11.88;;
68178;SDS011;69812;42.632;23.440;2023-08-24T06:16:35;16.88;;;12.40;;
68178;SDS011;69812;42.632;23.440;2023-08-24T06:19:01;21.33;;;12.70;;
68178;SDS011;69812;42.632;23.440;2023-08-24T06:21:26;18.02;;;12.63;;
68178;SDS011;69812;42.632;23.440;2023-08-24T06:23:54;18.77;;;12.98;;
68178;SDS011;69812;42.632;23.440;2023-08-24T06:26:22;21.77;;;13.30;;
68178;SDS011;69812;42.632;23.440;2023-08-24T06:28:50;20.70;;;14.25;;
68178;SDS011;69812;42.632;23.440;2023-08-24T06:31:16;23.70;;;13.65;;
68178;SDS011;69812;42.632;23.440;2023-08-24T06:33:41;23.60;;;14.13;;
68178;SDS011;69812;42.632;23.440;2023-08-24T06:36:06;23.45;;;13.05;;
68178;SDS011;69812;42.632;23.440;2023-08-24T06:40:58;20.67;;;12.80;;
68178;SDS011;69812;42.632;23.440;2023-08-24T06:43:24;19.20;;;13.15;;
68178;SDS011;69812;42.632;23.440;2023-08-24T06:45:54;20.60;;;13.27;;
68178;SDS011;69812;42.632;23.440;2023-08-24T06:48:20;17.23;;;12.52;;
68178;SDS011;69812;42.632;23.440;2023-08-24T06:50:45;18.05;;;12.27;;
68178;SDS011;69812;42.632;23.440;2023-08-24T06:53:16;17.17;;;12.85;;
68178;SDS011;69812;42.632;23.440;2023-08-24T06:55:44;15.23;;;12.07;;
68178;SDS011;69812;42.632;23.440;2023-08-24T06:58:10;13.93;;;12.38;;
68178;SDS011;69812;42.632;23.440;2023-08-24T07:03:00;12.20;;;10.87;;
68178;SDS011;69812;42.632;23.440;2023-08-24T07:07:51;17.15;;;12.38;;
68178;SDS011;69812;42.632;23.440;2023-08-24T07:10:18;15.63;;;11.95;;
68178;SDS011;69812;42.632;23.440;2023-08-24T07:12:44;20.52;;;12.60;;
68178;SDS011;69812;42.632;23.440;2023-08-24T07:15:11;14.25;;;11.50;;
68178;SDS011;69812;42.632;23.440;2023-08-24T07:18:02;12.98;;;11.52;;
68178;SDS011;69812;42.632;23.440;2023-08-24T07:20:34;15.82;;;12.77;;
68178;SDS011;69812;42.632;23.440;2023-08-24T07:23:03;14.40;;;11.90;;
68178;SDS011;69812;42.632;23.440;2023-08-24T07:25:28;15.60;;;12.57;;
68178;SDS011;69812;42.632;23.440;2023-08-24T07:27:54;15.32;;;13.73;;
68178;SDS011;69812;42.632;23.440;2023-08-24T07:30:23;19.58;;;12.38;;
68178;SDS011;69812;42.632;23.440;2023-08-24T07:32:51;13.90;;;12.48;;
68178;SDS011;69812;42.632;23.440;2023-08-24T07:35:16;16.92;;;13.38;;
68178;SDS011;69812;42.632;23.440;2023-08-24T07:40:07;15.87;;;12.43;;
68178;SDS011;69812;42.632;23.440;2023-08-24T07:42:42;18.25;;;13.15;;
68178;SDS011;69812;42.632;23.440;2023-08-24T07:45:08;14.20;;;12.38;;
68178;SDS011;69812;42.632;23.440;2023-08-24T07:47:51;14.65;;;12.88;;
68178;SDS011;69812;42.632;23.440;2023-08-24T07:50:19;14.40;;;12.90;;
68178;SDS011;69812;42.632;23.440;2023-08-24T07:52:44;14.63;;;12.77;;
68178;SDS011;69812;42.632;23.440;2023-08-24T07:55:09;17.25;;;12.93;;
68178;SDS011;69812;42.632;23.440;2023-08-24T07:57:37;14.68;;;12.90;;
68178;SDS011;69812;42.632;23.440;2023-08-24T08:00:03;13.85;;;12.52;;
68178;SDS011;69812;42.632;23.440;2023-08-24T08:02:29;14.63;;;12.45;;
68178;SDS011;69812;42.632;23.440;2023-08-24T08:04:58;13.27;;;11.77;;
68178;SDS011;69812;42.632;23.440;2023-08-24T08:07:24;13.45;;;11.63;;
68178;SDS011;69812;42.632;23.440;2023-08-24T08:10:01;13.57;;;12.18;;
68178;SDS011;69812;42.632;23.440;2023-08-24T08:12:27;13.60;;;11.73;;
68178;SDS011;69812;42.632;23.440;2023-08-24T08:14:57;14.48;;;12.13;;
68178;SDS011;69812;42.632;23.440;2023-08-24T08:17:24;17.17;;;13.00;;
68178;SDS011;69812;42.632;23.440;2023-08-24T08:19:54;14.65;;;12.27;;
68178;SDS011;69812;42.632;23.440;2023-08-24T08:22:20;14.82;;;12.32;;
68178;SDS011;69812;42.632;23.440;2023-08-24T08:24:48;17.25;;;12.10;;
68178;SDS011;69812;42.632;23.440;2023-08-24T08:27:21;21.27;;;13.02;;
68178;SDS011;69812;42.632;23.440;2023-08-24T08:29:47;15.32;;;12.00;;
68178;SDS011;69812;42.632;23.440;2023-08-24T08:32:13;14.38;;;11.82;;
68178;SDS011;69812;42.632;23.440;2023-08-24T08:34:48;16.23;;;12.70;;
68178;SDS011;69812;42.632;23.440;2023-08-24T08:37:13;18.90;;;12.07;;
68178;SDS011;69812;42.632;23.440;2023-08-24T08:42:04;16.70;;;11.43;;
68178;SDS011;69812;42.632;23.440;2023-08-24T08:44:30;16.77;;;11.15;;
68178;SDS011;69812;42.632;23.440;2023-08-24T08:46:59;15.52;;;11.13;;
68178;SDS011;69812;42.632;23.440;2023-08-24T08:51:59;14.93;;;11.68;;
68178;SDS011;69812;42.632;23.440;2023-08-24T08:54:41;15.93;;;10.88;;
68178;SDS011;69812;42.632;23.440;2023-08-24T08:57:08;14.15;;;10.63;;
68178;SDS011;69812;42.632;23.440;2023-08-24T08:59:38;16.48;;;11.35;;
68178;SDS011;69812;42.632;23.440;2023-08-24T09:02:16;16.67;;;11.68;;
68178;SDS011;69812;42.632;23.440;2023-08-24T09:04:47;14.77;;;11.55;;
68178;SDS011;69812;42.632;23.440;2023-08-24T09:07:15;14.68;;;10.65;;
68178;SDS011;69812;42.632;23.440;2023-08-24T09:12:07;13.68;;;10.73;;
68178;SDS011;69812;42.632;23.440;2023-08-24T09:17:04;14.02;;;10.65;;
68178;SDS011;69812;42.632;23.440;2023-08-24T09:22:00;15.68;;;11.13;;
68178;SDS011;69812;42.632;23.440;2023-08-24T09:24:33;15.73;;;10.68;;
68178;SDS011;69812;42.632;23.440;2023-08-24T09:27:15;17.58;;;10.70;;
68178;SDS011;69812;42.632;23.440;2023-08-24T09:29:51;12.98;;;11.00;;
68178;SDS011;69812;42.632;23.440;2023-08-24T09:32:27;13.55;;;11.90;;
68178;SDS011;69812;42.632;23.440;2023-08-24T09:34:54;13.73;;;11.10;;
68178;SDS011;69812;42.632;23.440;2023-08-24T09:37:31;15.45;;;12.00;;
68178;SDS011;69812;42.632;23.440;2023-08-24T09:40:03;14.30;;;11.95;;
68178;SDS011;69812;42.632;23.440;2023-08-24T09:42:41;13.57;;;11.63;;
68178;SDS011;69812;42.632;23.440;2023-08-24T09:45:08;13.20;;;11.18;;
68178;SDS011;69812;42.632;23.440;2023-08-24T09:47:37;15.32;;;12.23;;
68178;SDS011;69812;42.632;23.440;2023-08-24T09:50:09;13.00;;;11.23;;
68178;SDS011;69812;42.632;23.440;2023-08-24T09:52:37;13.32;;;11.05;;
68178;SDS011;69812;42.632;23.440;2023-08-24T09:55:09;13.70;;;11.60;;
68178;SDS011;69812;42.632;23.440;2023-08-24T09:57:37;13.25;;;11.50;;
68178;SDS011;69812;42.632;23.440;2023-08-24T10:00:05;13.15;;;11.35;;
68178;SDS011;69812;42.632;23.440;2023-08-24T10:02:47;12.52;;;11.07;;
68178;SDS011;69812;42.632;23.440;2023-08-24T10:05:20;15.05;;;11.50;;
68178;SDS011;69812;42.632;23.440;2023-08-24T10:07:55;12.00;;;10.65;;
68178;SDS011;69812;42.632;23.440;2023-08-24T10:10:28;13.30;;;11.43;;
68178;SDS011;69812;42.632;23.440;2023-08-24T10:13:18;14.52;;;11.18;;
68178;SDS011;69812;42.632;23.440;2023-08-24T10:16:02;12.93;;;10.98;;
68178;SDS011;69812;42.632;23.440;2023-08-24T10:18:36;12.68;;;11.38;;
68178;SDS011;69812;42.632;23.440;2023-08-24T10:21:07;12.57;;;11.27;;
68178;SDS011;69812;42.632;23.440;2023-08-24T10:26:06;11.82;;;10.52;;
68178;SDS011;69812;42.632;23.440;2023-08-24T10:28:32;12.45;;;10.13;;
68178;SDS011;69812;42.632;23.440;2023-08-24T10:31:05;12.02;;;10.32;;
68178;SDS011;69812;42.632;23.440;2023-08-24T10:33:31;14.60;;;9.98;;
68178;SDS011;69812;42.632;23.440;2023-08-24T10:36:00;11.02;;;10.02;;
68178;SDS011;69812;42.632;23.440;2023-08-24T10:40:54;12.05;;;10.73;;
68178;SDS011;69812;42.632;23.440;2023-08-24T10:43:20;11.95;;;10.75;;
68178;SDS011;69812;42.632;23.440;2023-08-24T10:45:58;16.63;;;10.93;;
68178;SDS011;69812;42.632;23.440;2023-08-24T10:48:28;11.70;;;10.50;;
68178;SDS011;69812;42.632;23.440;2023-08-24T10:56:18;11.70;;;9.98;;
68178;SDS011;69812;42.632;23.440;2023-08-24T10:58:45;11.07;;;9.98;;
68178;SDS011;69812;42.632;23.440;2023-08-24T11:01:17;12.35;;;10.02;;
68178;SDS011;69812;42.632;23.440;2023-08-24T11:03:50;12.70;;;10.45;;
68178;SDS011;69812;42.632;23.440;2023-08-24T11:06:21;12.48;;;11.23;;
68178;SDS011;69812;42.632;23.440;2023-08-24T11:09:04;15.07;;;11.68;;
68178;SDS011;69812;42.632;23.440;2023-08-24T11:14:53;12.55;;;11.25;;
68178;SDS011;69812;42.632;23.440;2023-08-24T11:17:24;12.50;;;11.20;;
68178;SDS011;69812;42.632;23.440;2023-08-24T11:19:50;13.32;;;11.90;;
68178;SDS011;69812;42.632;23.440;2023-08-24T11:22:19;12.95;;;11.05;;
68178;SDS011;69812;42.632;23.440;2023-08-24T11:24:46;12.23;;;11.02;;
68178;SDS011;69812;42.632;23.440;2023-08-24T11:29:37;14.77;;;11.65;;
68178;SDS011;69812;42.632;23.440;2023-08-24T11:34:34;18.15;;;11.55;;
68178;SDS011;69812;42.632;23.440;2023-08-24T11:37:01;17.95;;;12.27;;
68178;SDS011;69812;42.632;23.440;2023-08-24T11:39:26;20.00;;;13.85;;
68178;SDS011;69812;42.632;23.440;2023-08-24T11:42:01;19.38;;;14.70;;
68178;SDS011;69812;42.632;23.440;2023-08-24T11:44:44;18.10;;;12.88;;
68178;SDS011;69812;42.632;23.440;2023-08-24T11:47:11;18.33;;;13.18;;
68178;SDS011;69812;42.632;23.440;2023-08-24T11:49:39;15.07;;;13.20;;
68178;SDS011;69812;42.632;23.440;2023-08-24T11:52:05;16.30;;;13.05;;
68178;SDS011;69812;42.632;23.440;2023-08-24T11:54:35;18.00;;;12.68;;
68178;SDS011;69812;42.632;23.440;2023-08-24T11:57:06;16.63;;;11.88;;
68178;SDS011;69812;42.632;23.440;2023-08-24T11:59:38;19.25;;;12.90;;
68178;SDS011;69812;42.632;23.440;2023-08-24T12:02:05;14.77;;;10.95;;
68178;SDS011;69812;42.632;23.440;2023-08-24T12:04:37;12.60;;;10.68;;
68178;SDS011;69812;42.632;23.440;2023-08-24T12:07:13;12.93;;;10.27;;
68178;SDS011;69812;42.632;23.440;2023-08-24T12:09:40;11.15;;;9.30;;
68178;SDS011;69812;42.632;23.440;2023-08-24T12:12:11;14.93;;;10.70;;
68178;SDS011;69812;42.632;23.440;2023-08-24T12:14:43;11.38;;;9.63;;
68178;SDS011;69812;42.632;23.440;2023-08-24T12:17:12;13.73;;;9.93;;
68178;SDS011;69812;42.632;23.440;2023-08-24T12:19:45;16.90;;;10.25;;
68178;SDS011;69812;42.632;23.440;2023-08-24T12:22:20;11.50;;;9.52;;
68178;SDS011;69812;42.632;23.440;2023-08-24T12:24:49;12.07;;;10.00;;
68178;SDS011;69812;42.632;23.440;2023-08-24T12:27:21;14.25;;;9.77;;
68178;SDS011;69812;42.632;23.440;2023-08-24T12:29:50;16.25;;;11.15;;
68178;SDS011;69812;42.632;23.440;2023-08-24T12:32:16;13.65;;;11.02;;
68178;SDS011;69812;42.632;23.440;2023-08-24T12:34:50;14.68;;;10.93;;
68178;SDS011;69812;42.632;23.440;2023-08-24T12:37:19;11.93;;;10.73;;
68178;SDS011;69812;42.632;23.440;2023-08-24T12:39:45;13.30;;;10.82;;
68178;SDS011;69812;42.632;23.440;2023-08-24T12:42:10;14.50;;;11.02;;
68178;SDS011;69812;42.632;23.440;2023-08-24T12:44:41;13.00;;;9.93;;
68178;SDS011;69812;42.632;23.440;2023-08-24T12:47:07;11.43;;;10.23;;
68178;SDS011;69812;42.632;23.440;2023-08-24T12:49:36;12.95;;;10.55;;
68178;SDS011;69812;42.632;23.440;2023-08-24T12:52:01;10.93;;;9.82;;
68178;SDS011;69812;42.632;23.440;2023-08-24T12:54:27;11.73;;;10.00;;
68178;SDS011;69812;42.632;23.440;2023-08-24T12:59:17;11.00;;;9.77;;
68178;SDS011;69812;42.632;23.440;2023-08-24T13:01:48;14.32;;;10.75;;
68178;SDS011;69812;42.632;23.440;2023-08-24T13:04:16;12.38;;;11.07;;
68178;SDS011;69812;42.632;23.440;2023-08-24T13:09:06;12.10;;;10.77;;
68178;SDS011;69812;42.632;23.440;2023-08-24T13:11:37;13.80;;;11.20;;
68178;SDS011;69812;42.632;23.440;2023-08-24T13:16:28;12.60;;;11.05;;
68178;SDS011;69812;42.632;23.440;2023-08-24T13:18:58;13.82;;;11.35;;
68178;SDS011;69812;42.632;23.440;2023-08-24T13:21:24;14.80;;;11.50;;
68178;SDS011;69812;42.632;23.440;2023-08-24T13:23:52;16.27;;;10.95;;
68178;SDS011;69812;42.632;23.440;2023-08-24T13:28:49;13.75;;;12.02;;
68178;SDS011;69812;42.632;23.440;2023-08-24T13:31:15;12.35;;;11.15;;
68178;SDS011;69812;42.632;23.440;2023-08-24T13:33:46;12.90;;;11.60;;
68178;SDS011;69812;42.632;23.440;2023-08-24T13:36:12;13.25;;;11.30;;
68178;SDS011;69812;42.632;23.440;2023-08-24T13:41:05;12.43;;;11.07;;
68178;SDS011;69812;42.632;23.440;2023-08-24T13:43:33;13.88;;;11.93;;
68178;SDS011;69812;42.632;23.440;2023-08-24T13:48:24;13.48;;;11.68;;
68178;SDS011;69812;42.632;23.440;2023-08-24T13:50:52;12.90;;;11.23;;
68178;SDS011;69812;42.632;23.440;2023-08-24T13:55:48;12.73;;;11.00;;
68178;SDS011;69812;42.632;23.440;2023-08-24T13:58:14;13.43;;;11.35;;
68178;SDS011;69812;42.632;23.440;2023-08-24T14:03:07;12.60;;;11.17;;
68178;SDS011;69812;42.632;23.440;2023-08-24T14:05:38;13.65;;;12.13;;
68178;SDS011;69812;42.632;23.440;2023-08-24T14:08:04;14.98;;;11.85;;
68178;SDS011;69812;42.632;23.440;2023-08-24T14:13:02;12.85;;;10.85;;
68178;SDS011;69812;42.632;23.440;2023-08-24T14:17:53;12.13;;;10.90;;
68178;SDS011;69812;42.632;23.440;2023-08-24T14:22:45;16.23;;;11.52;;
68178;SDS011;69812;42.632;23.440;2023-08-24T14:25:15;13.70;;;12.35;;
68178;SDS011;69812;42.632;23.440;2023-08-24T14:27:44;17.75;;;12.35;;
68178;SDS011;69812;42.632;23.440;2023-08-24T14:32:35;13.15;;;11.43;;
68178;SDS011;69812;42.632;23.440;2023-08-24T14:35:00;15.30;;;11.90;;
68178;SDS011;69812;42.632;23.440;2023-08-24T14:37:28;15.90;;;11.85;;
68178;SDS011;69812;42.632;23.440;2023-08-24T14:39:55;12.75;;;11.43;;
68178;SDS011;69812;42.632;23.440;2023-08-24T14:42:23;14.15;;;11.65;;
68178;SDS011;69812;42.632;23.440;2023-08-24T14:44:51;13.73;;;11.35;;
68178;SDS011;69812;42.632;23.440;2023-08-24T14:49:42;13.37;;;11.63;;
68178;SDS011;69812;42.632;23.440;2023-08-24T14:54:33;16.90;;;11.33;;
68178;SDS011;69812;42.632;23.440;2023-08-24T14:56:58;17.73;;;12.00;;
68178;SDS011;69812;42.632;23.440;2023-08-24T14:59:25;13.77;;;11.50;;
68178;SDS011;69812;42.632;23.440;2023-08-24T15:04:29;13.98;;;11.80;;
68178;SDS011;69812;42.632;23.440;2023-08-24T15:06:56;14.18;;;12.30;;
68178;SDS011;69812;42.632;23.440;2023-08-24T15:09:31;14.35;;;12.13;;
68178;SDS011;69812;42.632;23.440;2023-08-24T15:11:57;15.40;;;11.95;;
68178;SDS011;69812;42.632;23.440;2023-08-24T15:16:47;15.90;;;12.00;;
68178;SDS011;69812;42.632;23.440;2023-08-24T15:19:16;15.48;;;11.82;;
68178;SDS011;69812;42.632;23.440;2023-08-24T15:21:43;12.98;;;11.23;;
68178;SDS011;69812;42.632;23.440;2023-08-24T15:26:34;11.37;;;10.03;;
68178;SDS011;69812;42.632;23.440;2023-08-24T15:29:14;12.75;;;10.52;;
68178;SDS011;69812;42.632;23.440;2023-08-24T15:31:43;13.45;;;10.63;;
68178;SDS011;69812;42.632;23.440;2023-08-24T15:39:10;11.23;;;10.02;;
68178;SDS011;69812;42.632;23.440;2023-08-24T15:41:38;12.35;;;11.15;;
68178;SDS011;69812;42.632;23.440;2023-08-24T15:44:11;14.00;;;10.45;;
68178;SDS011;69812;42.632;23.440;2023-08-24T15:49:01;13.93;;;10.93;;
68178;SDS011;69812;42.632;23.440;2023-08-24T15:51:29;12.38;;;10.13;;
68178;SDS011;69812;42.632;23.440;2023-08-24T15:53:57;13.05;;;10.23;;
68178;SDS011;69812;42.632;23.440;2023-08-24T15:56:25;14.13;;;10.70;;
68178;SDS011;69812;42.632;23.440;2023-08-24T15:58:52;13.10;;;10.77;;
68178;SDS011;69812;42.632;23.440;2023-08-24T18:58:14;14.60;;;10.05;;
68178;SDS011;69812;42.632;23.440;2023-08-24T19:00:42;17.35;;;12.23;;